Time;durP1;ratioP1;P1;durP2;ratioP2;P2;SDS_P1;SDS_P2;PMS_P1;PMS_P2;Temp;Humidity;BMP_temperature;BMP_pressure;BME280_temperature;BME280_humidity;BME280_pressure;Samples;Min_cycle;Max_cycle;Signal;HPM_P1;HPM_P2
2023/03/19 00:02:14;;;;;;;11.88;5.60;;;11.30;92.40;;;;;;4970147;28;20152;-76
2023/03/19 00:04:40;;;;;;;10.48;4.05;;;11.30;92.50;;;;;;4973214;28;20387;-77
2023/03/19 00:07:05;;;;;;;6.03;3.17;;;11.30;92.50;;;;;;4972448;28;20062;-76
2023/03/19 00:09:31;;;;;;;7.10;3.10;;;11.20;92.60;;;;;;4987255;28;20519;-76
2023/03/19 00:11:56;;;;;;;5.90;2.75;;;11.20;92.80;;;;;;4971497;28;20117;-76
2023/03/19 00:14:23;;;;;;;5.13;2.80;;;11.20;92.80;;;;;;4972837;28;20121;-76
2023/03/19 00:16:48;;;;;;;7.93;2.95;;;11.20;92.80;;;;;;4968104;28;20042;-76
2023/03/19 00:19:14;;;;;;;8.50;2.53;;;11.20;92.80;;;;;;4970026;28;20023;-75
2023/03/19 00:21:40;;;;;;;6.60;3.17;;;11.20;92.90;;;;;;4970519;28;20369;-77
2023/03/19 00:24:07;;;;;;;8.68;3.20;;;11.20;92.90;;;;;;4968200;28;20027;-76
2023/03/19 00:26:33;;;;;;;9.85;3.22;;;11.20;93.00;;;;;;4975719;28;20114;-76
2023/03/19 00:29:00;;;;;;;9.30;3.63;;;11.20;93.00;;;;;;4976203;28;20035;-74
2023/03/19 00:31:27;;;;;;;5.60;2.85;;;11.20;93.10;;;;;;4975580;28;20694;-76
2023/03/19 00:33:56;;;;;;;8.30;3.35;;;11.20;93.20;;;;;;4967918;28;20471;-76
2023/03/19 00:36:22;;;;;;;8.70;2.70;;;11.20;93.10;;;;;;4974743;28;20057;-76
2023/03/19 00:38:47;;;;;;;9.60;3.17;;;11.20;93.20;;;;;;4986514;28;20126;-76
2023/03/19 00:41:14;;;;;;;6.25;2.40;;;11.20;93.20;;;;;;4973823;28;20118;-76
2023/03/19 00:43:40;;;;;;;5.38;2.65;;;11.20;93.20;;;;;;4974194;28;20030;-76
2023/03/19 00:46:06;;;;;;;7.32;2.90;;;11.20;93.30;;;;;;4976914;28;20039;-77
2023/03/19 00:48:32;;;;;;;8.20;2.83;;;11.20;93.30;;;;;;4978661;28;20030;-77
2023/03/19 00:51:06;;;;;;;6.15;2.67;;;11.20;93.60;;;;;;4973554;28;20023;-77
2023/03/19 00:53:35;;;;;;;5.97;2.45;;;11.20;93.40;;;;;;4974128;28;20069;-77
2023/03/19 00:56:01;;;;;;;4.25;2.50;;;11.20;93.40;;;;;;4978118;28;20034;-77
2023/03/19 00:58:27;;;;;;;6.53;3.10;;;11.20;93.50;;;;;;4970684;28;20035;-77
2023/03/19 01:00:53;;;;;;;6.07;2.90;;;11.20;93.50;;;;;;4968560;28;20030;-78
2023/03/19 01:03:20;;;;;;;6.60;3.08;;;11.20;93.40;;;;;;4978474;28;20023;-77
2023/03/19 01:05:49;;;;;;;6.70;2.60;;;11.20;93.50;;;;;;4977111;28;20027;-77
2023/03/19 01:08:16;;;;;;;5.75;3.42;;;11.20;93.60;;;;;;4971198;28;20520;-78
2023/03/19 01:10:42;;;;;;;7.97;4.47;;;11.20;93.70;;;;;;4973877;28;20113;-77
2023/03/19 01:13:08;;;;;;;8.75;4.88;;;11.20;93.80;;;;;;4966916;28;20420;-76
2023/03/19 01:15:38;;;;;;;11.43;4.70;;;11.20;93.90;;;;;;4965617;28;20189;-75
2023/03/19 01:18:04;;;;;;;7.97;4.25;;;11.20;94.10;;;;;;4969527;28;20459;-75
2023/03/19 01:20:30;;;;;;;11.82;4.20;;;11.20;94.10;;;;;;4965679;28;20031;-75
2023/03/19 01:22:56;;;;;;;10.73;4.22;;;11.10;93.60;;;;;;4972060;28;20037;-75
2023/03/19 01:25:22;;;;;;;7.68;4.20;;;11.10;93.50;;;;;;4967181;28;20089;-76
2023/03/19 01:27:47;;;;;;;9.85;3.97;;;11.10;93.30;;;;;;4976356;28;20061;-76
2023/03/19 01:30:14;;;;;;;8.00;4.10;;;11.00;93.20;;;;;;4967423;28;20137;-76
2023/03/19 01:32:39;;;;;;;9.00;4.45;;;10.90;93.20;;;;;;4970508;28;20030;-76
2023/03/19 01:35:06;;;;;;;8.55;4.70;;;10.90;93.40;;;;;;4969278;28;20036;-76
2023/03/19 01:37:31;;;;;;;8.30;4.43;;;10.90;93.80;;;;;;4971485;28;20030;-75
2023/03/19 01:39:57;;;;;;;9.48;4.13;;;10.80;93.70;;;;;;4971862;28;20070;-76
2023/03/19 01:42:23;;;;;;;12.77;3.80;;;10.80;93.70;;;;;;4970633;28;20427;-78
2023/03/19 01:44:49;;;;;;;9.38;4.10;;;10.80;93.60;;;;;;4975930;28;20022;-77
2023/03/19 01:47:40;;;;;;;12.40;4.32;;;10.80;93.60;;;;;;4973908;28;20042;-76
2023/03/19 01:50:23;;;;;;;8.23;4.00;;;10.70;93.50;;;;;;4975223;28;20066;-76
2023/03/19 01:52:49;;;;;;;8.30;4.13;;;10.70;94.00;;;;;;4968174;28;20209;-76
2023/03/19 01:55:15;;;;;;;7.32;4.18;;;10.70;94.70;;;;;;4970159;28;20034;-75
2023/03/19 01:57:41;;;;;;;6.10;3.78;;;10.60;94.60;;;;;;4962084;28;20117;-76
2023/03/19 02:00:08;;;;;;;10.45;4.75;;;10.60;95.00;;;;;;4967568;28;20062;-76
2023/03/19 02:02:36;;;;;;;7.30;4.05;;;10.60;95.40;;;;;;4972420;28;20047;-75
2023/03/19 02:05:07;;;;;;;7.32;3.15;;;10.60;95.20;;;;;;4965474;28;20026;-76
2023/03/19 02:07:34;;;;;;;7.78;4.18;;;10.50;95.50;;;;;;4967565;28;20511;-76
2023/03/19 02:10:06;;;;;;;8.68;3.67;;;10.50;95.90;;;;;;4976448;28;20023;-76
2023/03/19 02:12:31;;;;;;;11.43;4.70;;;10.50;96.50;;;;;;4972852;28;20111;-77
2023/03/19 02:14:57;;;;;;;9.05;4.80;;;10.60;96.90;;;;;;4972469;28;20118;-77
2023/03/19 02:17:23;;;;;;;11.15;4.50;;;10.60;97.40;;;;;;4970644;28;20034;-76
2023/03/19 02:20:07;;;;;;;9.23;4.07;;;10.60;97.60;;;;;;4974109;28;20045;-77
2023/03/19 02:22:35;;;;;;;11.63;4.18;;;10.60;98.30;;;;;;4967882;28;20119;-76
2023/03/19 02:25:20;;;;;;;8.82;4.28;;;10.60;98.30;;;;;;4975574;28;20511;-76
2023/03/19 02:27:46;;;;;;;8.57;4.10;;;10.70;99.00;;;;;;4974284;28;20015;-76
2023/03/19 02:30:25;;;;;;;11.35;5.07;;;10.70;99.60;;;;;;4973854;28;20030;-75
2023/03/19 02:32:51;;;;;;;15.80;6.32;;;10.60;99.90;;;;;;4972351;28;20150;-76
2023/03/19 02:35:17;;;;;;;16.83;5.55;;;10.70;99.90;;;;;;4974823;28;20114;-75
2023/03/19 02:37:42;;;;;;;22.67;8.80;;;10.60;99.90;;;;;;4965027;28;20113;-76
2023/03/19 02:40:15;;;;;;;25.13;12.35;;;10.60;99.90;;;;;;4975175;28;20090;-76
2023/03/19 02:42:41;;;;;;;19.52;7.82;;;10.50;99.90;;;;;;4974066;28;20007;-77
2023/03/19 02:45:07;;;;;;;22.20;7.15;;;10.50;99.90;;;;;;4978353;28;20034;-76
2023/03/19 02:47:34;;;;;;;25.85;12.25;;;10.40;99.90;;;;;;4975142;28;20030;-77
2023/03/19 02:49:59;;;;;;;24.80;11.40;;;10.40;99.90;;;;;;4992255;28;20022;-76
2023/03/19 02:52:25;;;;;;;15.95;7.57;;;10.40;99.90;;;;;;4978925;28;20049;-77
2023/03/19 02:54:51;;;;;;;15.80;5.43;;;10.40;99.90;;;;;;4974101;28;20147;-78
2023/03/19 02:57:16;;;;;;;9.77;4.95;;;10.30;99.90;;;;;;4980237;28;20091;-77
2023/03/19 02:59:42;;;;;;;9.65;4.85;;;10.20;99.90;;;;;;4979158;28;20030;-75
2023/03/19 03:02:08;;;;;;;7.45;4.50;;;10.30;99.90;;;;;;4982238;28;20023;-78
2023/03/19 03:04:36;;;;;;;10.25;5.95;;;10.20;99.90;;;;;;4980589;28;20027;-78
2023/03/19 03:07:03;;;;;;;14.63;6.60;;;10.30;99.90;;;;;;4977635;28;20034;-77
2023/03/19 03:09:28;;;;;;;9.88;5.20;;;10.30;99.90;;;;;;4977665;28;20030;-77
2023/03/19 03:11:54;;;;;;;8.75;3.80;;;10.20;99.90;;;;;;4975930;28;20081;-76
2023/03/19 03:14:20;;;;;;;8.52;3.72;;;10.20;99.90;;;;;;4975671;28;20035;-76
2023/03/19 03:16:45;;;;;;;9.10;3.92;;;10.20;99.90;;;;;;4974574;28;20029;-76
2023/03/19 03:19:11;;;;;;;7.45;3.70;;;10.20;99.90;;;;;;4973954;28;20038;-77
2023/03/19 03:21:37;;;;;;;6.78;3.78;;;10.20;99.90;;;;;;4976840;28;20042;-77
2023/03/19 03:24:03;;;;;;;8.48;3.30;;;10.30;99.90;;;;;;4972409;28;20026;-76
2023/03/19 03:26:28;;;;;;;5.90;3.05;;;10.30;99.90;;;;;;4978234;28;20027;-76
2023/03/19 03:28:54;;;;;;;4.57;2.55;;;10.30;99.90;;;;;;4971999;28;20523;-77
2023/03/19 03:31:21;;;;;;;5.63;2.67;;;10.30;99.90;;;;;;4974665;28;20026;-74
2023/03/19 03:33:46;;;;;;;7.45;2.65;;;10.30;99.90;;;;;;4975960;28;20034;-76
2023/03/19 03:36:12;;;;;;;5.78;2.45;;;10.30;99.90;;;;;;4976832;28;20038;-76
2023/03/19 03:38:38;;;;;;;6.30;2.70;;;10.30;99.90;;;;;;4969396;28;20030;-76
2023/03/19 03:41:04;;;;;;;6.35;3.50;;;10.30;99.90;;;;;;4971914;28;20023;-76
2023/03/19 03:43:30;;;;;;;7.40;2.65;;;10.30;99.90;;;;;;4976704;28;20110;-76
2023/03/19 03:45:56;;;;;;;7.00;2.80;;;10.30;99.90;;;;;;4970327;28;20101;-77
2023/03/19 03:48:22;;;;;;;4.00;2.50;;;10.30;99.90;;;;;;4977653;28;20037;-77
2023/03/19 03:50:48;;;;;;;4.38;2.53;;;10.30;99.90;;;;;;4998003;23;20043;-75
2023/03/19 03:53:14;;;;;;;4.45;2.53;;;10.30;99.90;;;;;;4996062;28;20065;-75
2023/03/19 03:55:41;;;;;;;3.65;2.30;;;10.30;99.90;;;;;;4990316;28;20030;-75
2023/03/19 03:58:06;;;;;;;7.32;3.25;;;10.30;99.90;;;;;;4996533;28;20436;-76
2023/03/19 04:00:33;;;;;;;4.07;2.58;;;10.30;99.90;;;;;;4986628;28;20034;-76
2023/03/19 04:02:58;;;;;;;5.22;2.65;;;10.30;99.90;;;;;;4976508;28;20027;-76
2023/03/19 04:05:25;;;;;;;5.78;2.75;;;10.30;99.90;;;;;;4980702;28;20035;-76
2023/03/19 04:07:51;;;;;;;4.15;2.50;;;10.30;99.90;;;;;;4976831;28;20074;-75
2023/03/19 04:10:18;;;;;;;4.43;2.33;;;10.30;99.90;;;;;;4986209;28;20031;-76
2023/03/19 04:12:44;;;;;;;4.53;2.85;;;10.40;99.90;;;;;;4995864;28;20030;-76
2023/03/19 04:15:11;;;;;;;4.47;2.50;;;10.30;99.90;;;;;;4982931;28;20432;-76
2023/03/19 04:17:37;;;;;;;9.00;3.00;;;10.40;99.90;;;;;;4974740;28;20023;-75
2023/03/19 04:20:04;;;;;;;6.70;2.67;;;10.40;99.90;;;;;;4960363;28;20027;-75
2023/03/19 04:22:30;;;;;;;4.45;2.40;;;10.40;99.90;;;;;;4975580;28;20102;-76
2023/03/19 04:24:56;;;;;;;4.32;3.00;;;10.40;99.90;;;;;;4974384;28;20027;-76
2023/03/19 04:27:22;;;;;;;6.38;2.97;;;10.40;99.90;;;;;;4976117;28;20023;-76
2023/03/19 04:29:47;;;;;;;3.97;2.25;;;10.40;99.90;;;;;;4986443;28;20038;-75
2023/03/19 04:32:14;;;;;;;4.63;2.47;;;10.30;99.90;;;;;;4964748;28;20027;-75
2023/03/19 04:34:40;;;;;;;5.18;2.80;;;10.30;99.90;;;;;;4976000;28;20112;-76
2023/03/19 04:37:09;;;;;;;6.32;3.00;;;10.30;99.90;;;;;;4981479;28;20130;-76
2023/03/19 04:39:38;;;;;;;5.80;3.28;;;10.20;99.90;;;;;;4991224;28;20043;-77
2023/03/19 04:42:04;;;;;;;10.32;5.47;;;10.20;99.90;;;;;;4975096;28;20073;-76
2023/03/19 04:44:30;;;;;;;9.48;4.35;;;10.20;99.90;;;;;;4966695;28;20027;-75
2023/03/19 04:46:56;;;;;;;7.70;3.50;;;10.20;99.90;;;;;;4975907;28;20031;-77
2023/03/19 04:49:23;;;;;;;9.65;3.05;;;10.20;99.90;;;;;;4968321;28;20105;-76
2023/03/19 04:51:49;;;;;;;5.55;2.85;;;10.20;99.90;;;;;;4963607;28;20178;-75
2023/03/19 04:54:15;;;;;;;9.07;2.88;;;10.20;99.90;;;;;;4956418;28;20055;-76
2023/03/19 04:56:41;;;;;;;4.55;3.00;;;10.20;99.90;;;;;;4956290;28;20456;-76
2023/03/19 04:59:07;;;;;;;5.47;3.63;;;10.20;99.90;;;;;;4956018;29;20030;-75
2023/03/19 05:01:33;;;;;;;4.88;3.25;;;10.20;99.90;;;;;;4954777;28;20027;-76
2023/03/19 05:03:59;;;;;;;6.35;3.60;;;10.20;99.90;;;;;;4954863;29;20031;-76
2023/03/19 05:06:25;;;;;;;5.20;3.03;;;10.20;99.90;;;;;;4955055;28;20051;-75
2023/03/19 05:08:51;;;;;;;3.85;2.65;;;10.20;99.90;;;;;;4955989;28;20019;-75
2023/03/19 05:11:17;;;;;;;5.25;2.50;;;10.20;99.90;;;;;;4954481;28;20038;-76
2023/03/19 05:13:43;;;;;;;5.72;2.90;;;10.30;99.90;;;;;;4955718;29;20038;-76
2023/03/19 05:16:09;;;;;;;5.97;2.60;;;10.20;99.90;;;;;;4956213;29;20087;-76
2023/03/19 05:18:35;;;;;;;5.80;2.45;;;10.20;99.90;;;;;;4956092;29;20027;-75
2023/03/19 05:21:00;;;;;;;4.05;2.20;;;10.20;99.90;;;;;;4955730;28;20647;-75
2023/03/19 05:23:26;;;;;;;6.88;2.22;;;10.20;99.90;;;;;;4954490;29;20114;-75
2023/03/19 05:25:51;;;;;;;4.35;2.22;;;10.20;99.90;;;;;;4955871;28;20034;-75
2023/03/19 05:28:17;;;;;;;4.65;2.38;;;10.20;99.90;;;;;;4955273;29;20380;-75
2023/03/19 05:30:43;;;;;;;3.55;2.30;;;10.20;99.90;;;;;;4954354;28;20105;-75
2023/03/19 05:33:09;;;;;;;5.50;1.63;;;10.20;99.90;;;;;;4954666;29;20066;-76
2023/03/19 05:35:36;;;;;;;4.70;1.73;;;10.20;99.90;;;;;;4962439;28;20027;-76
2023/03/19 05:38:01;;;;;;;3.10;1.83;;;10.20;99.90;;;;;;4975630;28;20061;-76
2023/03/19 05:40:27;;;;;;;7.88;2.20;;;10.20;99.90;;;;;;4976133;28;20130;-77
2023/03/19 05:42:53;;;;;;;4.65;2.10;;;10.20;99.90;;;;;;4960494;28;20467;-75
2023/03/19 05:45:18;;;;;;;3.28;2.17;;;10.20;99.90;;;;;;4976361;28;20118;-75
2023/03/19 05:47:47;;;;;;;3.38;1.80;;;10.20;99.90;;;;;;4974066;28;20035;-76
2023/03/19 05:50:13;;;;;;;5.03;2.05;;;10.20;99.90;;;;;;4975577;28;20038;-76
2023/03/19 05:52:39;;;;;;;5.07;2.00;;;10.20;99.90;;;;;;4976553;28;20411;-75
2023/03/19 05:55:05;;;;;;;4.35;1.83;;;10.20;99.90;;;;;;4974876;28;20031;-75
2023/03/19 05:57:31;;;;;;;4.22;1.90;;;10.20;99.90;;;;;;4975081;28;20034;-76
2023/03/19 05:59:57;;;;;;;4.50;1.90;;;10.20;99.90;;;;;;4976547;28;20493;-76
2023/03/19 06:02:23;;;;;;;4.32;1.98;;;10.20;99.90;;;;;;4971830;28;20027;-75
2023/03/19 06:04:48;;;;;;;4.88;1.90;;;10.20;99.90;;;;;;4966955;28;20228;-75
2023/03/19 06:07:14;;;;;;;4.68;2.38;;;10.20;99.90;;;;;;4967784;28;20031;-75
2023/03/19 06:09:40;;;;;;;6.82;2.38;;;10.20;99.90;;;;;;4973648;28;20491;-75
2023/03/19 06:12:07;;;;;;;6.80;2.10;;;10.20;99.90;;;;;;4963352;28;20050;-76
2023/03/19 06:14:32;;;;;;;5.38;2.60;;;10.20;99.90;;;;;;4975866;28;20031;-76
2023/03/19 06:16:58;;;;;;;5.10;2.28;;;10.20;99.90;;;;;;4977475;28;20023;-75
2023/03/19 06:19:24;;;;;;;3.90;1.60;;;10.20;99.90;;;;;;4985906;28;20062;-76
2023/03/19 06:21:51;;;;;;;5.63;2.15;;;10.20;99.90;;;;;;4976805;28;20030;-76
2023/03/19 06:24:16;;;;;;;3.42;1.80;;;10.30;99.90;;;;;;4960615;28;20024;-76
2023/03/19 06:26:42;;;;;;;2.42;1.38;;;10.30;99.90;;;;;;4965048;28;20023;-76
2023/03/19 06:29:08;;;;;;;4.00;1.65;;;10.40;99.90;;;;;;4989305;28;20037;-75
2023/03/19 06:31:34;;;;;;;4.10;1.52;;;10.30;99.90;;;;;;4993598;28;20038;-74
2023/03/19 06:33:59;;;;;;;3.00;1.70;;;10.40;99.90;;;;;;4974026;28;20054;-76
2023/03/19 06:36:25;;;;;;;5.20;3.05;;;10.40;99.90;;;;;;4978104;28;20030;-75
2023/03/19 06:38:51;;;;;;;10.82;3.60;;;10.40;99.90;;;;;;4978332;28;20466;-76
2023/03/19 06:41:17;;;;;;;8.32;4.05;;;10.40;99.90;;;;;;4975571;28;20049;-76
2023/03/19 06:43:42;;;;;;;8.15;4.50;;;10.30;99.90;;;;;;4992783;28;20084;-75
2023/03/19 06:46:09;;;;;;;6.15;3.97;;;10.30;99.90;;;;;;4958718;28;20031;-75
2023/03/19 06:48:35;;;;;;;7.13;3.60;;;10.30;99.90;;;;;;4973214;28;20023;-76
2023/03/19 06:51:01;;;;;;;7.88;4.22;;;10.40;99.90;;;;;;4978446;28;20467;-75
2023/03/19 06:53:27;;;;;;;8.23;3.47;;;10.40;99.90;;;;;;4976992;28;20023;-75
2023/03/19 06:55:53;;;;;;;9.00;3.92;;;10.40;99.90;;;;;;4978151;28;20130;-75
2023/03/19 06:58:19;;;;;;;7.45;3.72;;;10.40;99.90;;;;;;4977874;28;20027;-75
2023/03/19 07:00:45;;;;;;;5.72;3.47;;;10.40;99.90;;;;;;4967299;28;20027;-75
2023/03/19 07:03:11;;;;;;;8.82;3.60;;;10.40;99.90;;;;;;4975590;28;20026;-77
2023/03/19 07:05:36;;;;;;;13.00;4.20;;;10.40;99.90;;;;;;4976296;28;20026;-75
2023/03/19 07:08:03;;;;;;;6.50;4.13;;;10.50;99.90;;;;;;4976531;28;20027;-75
2023/03/19 07:10:28;;;;;;;7.45;3.80;;;10.50;99.90;;;;;;4977277;28;20488;-74
2023/03/19 07:12:54;;;;;;;8.32;3.65;;;10.50;99.90;;;;;;4976782;28;20069;-76
2023/03/19 07:15:20;;;;;;;5.15;3.38;;;10.50;99.90;;;;;;4977868;28;20123;-76
2023/03/19 07:17:47;;;;;;;8.35;4.05;;;10.50;99.90;;;;;;4968807;28;20035;-75
2023/03/19 07:20:13;;;;;;;6.53;3.63;;;10.50;99.90;;;;;;4968606;28;20015;-77
2023/03/19 07:22:39;;;;;;;6.10;3.28;;;10.60;99.90;;;;;;4974549;28;20015;-76
2023/03/19 07:25:06;;;;;;;5.50;3.00;;;10.60;99.90;;;;;;4977790;28;20535;-75
2023/03/19 07:27:32;;;;;;;5.25;3.10;;;10.70;99.90;;;;;;4985324;28;20125;-74
2023/03/19 07:29:58;;;;;;;5.75;2.40;;;10.70;99.90;;;;;;4977525;28;20528;-75
2023/03/19 07:32:23;;;;;;;3.38;1.92;;;10.80;99.90;;;;;;4977594;28;20073;-76
2023/03/19 07:34:49;;;;;;;5.00;2.53;;;10.90;99.90;;;;;;4973069;28;20034;-76
2023/03/19 07:37:15;;;;;;;5.75;2.38;;;10.90;99.90;;;;;;4976304;28;20499;-76
2023/03/19 07:39:41;;;;;;;3.60;1.80;;;11.00;99.90;;;;;;4968074;28;20035;-76
2023/03/19 07:42:07;;;;;;;6.07;2.35;;;11.00;99.90;;;;;;4972273;28;20093;-76
2023/03/19 07:44:32;;;;;;;4.93;2.03;;;11.10;99.90;;;;;;4976839;28;20014;-75
2023/03/19 07:46:58;;;;;;;4.70;1.90;;;11.10;99.90;;;;;;4976929;28;20031;-75
2023/03/19 07:49:24;;;;;;;4.70;1.70;;;11.20;99.90;;;;;;4977175;28;20113;-76
2023/03/19 07:51:50;;;;;;;5.63;1.80;;;11.20;99.90;;;;;;4976605;28;20091;-75
2023/03/19 07:54:15;;;;;;;4.60;1.60;;;11.20;99.90;;;;;;4972398;28;20035;-76
2023/03/19 07:56:41;;;;;;;2.40;1.40;;;11.30;99.90;;;;;;4977036;28;20039;-76
2023/03/19 07:59:07;;;;;;;5.30;1.40;;;11.40;99.90;;;;;;4972159;28;20500;-73
2023/03/19 08:01:32;;;;;;;3.30;1.55;;;11.40;99.90;;;;;;4964903;28;20441;-76
2023/03/19 08:03:58;;;;;;;5.25;1.55;;;11.40;99.90;;;;;;4973489;28;20432;-75
2023/03/19 08:06:24;;;;;;;3.40;1.58;;;11.50;99.90;;;;;;4971165;28;20023;-73
2023/03/19 08:08:49;;;;;;;4.18;1.30;;;11.60;99.90;;;;;;4976206;28;20523;-75
2023/03/19 08:11:15;;;;;;;3.85;1.55;;;11.70;99.90;;;;;;4974931;28;20173;-75
2023/03/19 08:13:41;;;;;;;5.13;1.65;;;11.70;99.90;;;;;;4976469;28;20046;-75
2023/03/19 08:16:07;;;;;;;1.83;1.20;;;11.80;99.90;;;;;;4975846;28;20500;-75
2023/03/19 08:18:34;;;;;;;3.33;1.70;;;11.90;99.90;;;;;;4976689;28;20114;-75
2023/03/19 08:21:00;;;;;;;2.90;1.80;;;12.00;99.90;;;;;;4976290;28;20361;-74
2023/03/19 08:23:26;;;;;;;3.55;1.80;;;12.10;99.90;;;;;;4974688;28;20232;-75
2023/03/19 08:25:53;;;;;;;3.53;1.13;;;12.20;99.90;;;;;;4975198;28;20031;-75
2023/03/19 08:28:19;;;;;;;4.70;1.73;;;12.40;99.90;;;;;;4976610;28;20019;-75
2023/03/19 08:30:45;;;;;;;3.05;1.65;;;12.40;99.90;;;;;;4975043;28;20023;-74
2023/03/19 08:33:11;;;;;;;4.93;1.90;;;12.60;99.90;;;;;;4975305;28;20062;-74
2023/03/19 08:35:37;;;;;;;3.60;1.33;;;12.60;99.90;;;;;;4971665;28;20034;-74
2023/03/19 08:38:02;;;;;;;2.75;1.42;;;12.70;99.90;;;;;;4972952;28;20472;-75
2023/03/19 08:40:28;;;;;;;3.85;1.75;;;12.80;99.90;;;;;;4911592;28;20568;-75
2023/03/19 08:42:54;;;;;;;4.15;1.42;;;12.90;99.90;;;;;;4956928;28;20027;-75
2023/03/19 08:45:21;;;;;;;4.60;1.52;;;12.90;99.90;;;;;;4956231;28;20102;-75
2023/03/19 08:47:47;;;;;;;3.78;1.50;;;13.00;99.90;;;;;;4956290;28;20027;-75
2023/03/19 08:50:13;;;;;;;4.68;1.67;;;13.00;99.90;;;;;;4960859;28;20062;-73
2023/03/19 08:52:39;;;;;;;4.57;1.55;;;13.10;99.90;;;;;;4966539;28;20113;-75
2023/03/19 08:55:06;;;;;;;4.85;1.60;;;13.10;99.90;;;;;;4956733;28;20028;-75
2023/03/19 08:57:33;;;;;;;3.10;1.02;;;13.20;99.90;;;;;;4955932;28;20088;-73
2023/03/19 08:59:58;;;;;;;2.33;1.20;;;13.30;99.90;;;;;;4956160;28;20023;-76
2023/03/19 09:02:24;;;;;;;3.80;1.35;;;13.40;99.90;;;;;;4956405;28;20023;-75
2023/03/19 09:04:50;;;;;;;4.00;1.80;;;13.60;99.90;;;;;;4965634;28;20035;-74
2023/03/19 09:07:15;;;;;;;6.25;2.38;;;13.70;99.90;;;;;;4975210;28;20027;-74
2023/03/19 09:09:43;;;;;;;2.67;1.40;;;13.80;99.90;;;;;;4975311;28;20758;-75
2023/03/19 09:12:15;;;;;;;6.72;1.98;;;13.90;99.90;;;;;;4975048;28;20023;-75
2023/03/19 09:14:41;;;;;;;4.50;1.70;;;13.90;99.90;;;;;;4958236;28;20031;-76
2023/03/19 09:17:07;;;;;;;3.58;1.70;;;14.00;99.90;;;;;;4955646;28;20067;-74
2023/03/19 09:19:33;;;;;;;5.72;1.92;;;14.20;99.90;;;;;;4954608;28;20110;-76
2023/03/19 09:21:59;;;;;;;4.05;1.70;;;14.20;99.90;;;;;;4956182;29;20034;-76
2023/03/19 09:24:25;;;;;;;3.78;1.58;;;14.30;99.90;;;;;;4955991;28;20114;-77
2023/03/19 09:26:51;;;;;;;4.38;1.75;;;14.30;99.90;;;;;;4956203;28;20058;-76
2023/03/19 09:29:17;;;;;;;4.38;1.98;;;14.40;99.90;;;;;;4956150;28;20495;-75
2023/03/19 09:31:43;;;;;;;4.22;1.98;;;14.40;99.90;;;;;;4955955;28;20057;-74
2023/03/19 09:34:09;;;;;;;4.18;1.65;;;14.50;99.90;;;;;;4955978;28;20417;-72
2023/03/19 09:36:36;;;;;;;5.07;1.88;;;14.50;99.90;;;;;;4969986;28;20023;-75
2023/03/19 09:39:04;;;;;;;2.92;1.60;;;14.50;99.90;;;;;;4955460;28;20034;-76
2023/03/19 09:41:44;;;;;;;4.57;1.83;;;14.60;99.90;;;;;;4955175;28;20031;-76
2023/03/19 09:44:12;;;;;;;3.97;1.75;;;14.60;99.80;;;;;;4955419;28;20023;-76
2023/03/19 09:46:49;;;;;;;3.83;2.00;;;14.50;99.90;;;;;;4979283;28;20038;-75
2023/03/19 09:49:26;;;;;;;8.30;2.30;;;14.50;99.90;;;;;;4956102;28;20027;-77
2023/03/19 09:51:53;;;;;;;5.88;2.22;;;14.50;99.60;;;;;;4968334;23;20046;-78
2023/03/19 09:54:28;;;;;;;4.30;2.15;;;14.50;99.80;;;;;;4966645;28;20041;-78
2023/03/19 09:56:53;;;;;;;6.50;2.10;;;14.60;99.70;;;;;;4968794;28;20039;-80
2023/03/19 09:59:22;;;;;;;3.40;1.70;;;14.60;99.90;;;;;;4988811;28;20081;-79
2023/03/19 10:01:55;;;;;;;3.97;1.90;;;14.70;99.70;;;;;;4977443;28;20030;-78
2023/03/19 10:04:20;;;;;;;5.57;1.90;;;14.80;99.40;;;;;;4969298;28;20030;-79
2023/03/19 10:06:46;;;;;;;3.92;1.80;;;14.90;99.20;;;;;;4964802;28;20038;-78
2023/03/19 10:09:41;;;;;;;3.88;1.58;;;15.00;98.80;;;;;;4964664;28;20130;-78
2023/03/19 10:12:36;;;;;;;3.97;2.17;;;15.00;98.50;;;;;;4958253;28;20035;-78
2023/03/19 10:15:32;;;;;;;3.22;1.60;;;15.10;98.30;;;;;;4970532;28;20026;-79
2023/03/19 10:18:00;;;;;;;6.53;2.25;;;15.20;98.30;;;;;;4960462;28;20055;-79
2023/03/19 10:20:54;;;;;;;5.00;2.03;;;15.30;98.00;;;;;;4969200;28;20026;-78
2023/03/19 10:23:44;;;;;;;5.55;2.03;;;15.30;97.70;;;;;;4969631;28;20126;-78
2023/03/19 10:26:14;;;;;;;5.72;2.15;;;15.40;97.70;;;;;;4962858;28;20459;-78
2023/03/19 10:28:43;;;;;;;3.72;1.83;;;15.50;97.50;;;;;;4966834;28;20381;-79
2023/03/19 10:31:28;;;;;;;5.10;2.78;;;15.50;97.40;;;;;;4973817;28;20047;-79
2023/03/19 10:34:16;;;;;;;3.05;1.90;;;15.60;96.70;;;;;;4962987;28;20023;-80
2023/03/19 10:36:42;;;;;;;4.57;1.80;;;15.60;96.40;;;;;;4990967;28;20042;-78
2023/03/19 10:39:08;;;;;;;2.88;1.85;;;15.60;96.20;;;;;;4965974;28;20089;-79
2023/03/19 10:41:56;;;;;;;5.32;1.95;;;15.60;96.30;;;;;;4972918;28;20026;-80
2023/03/19 10:44:37;;;;;;;2.83;1.60;;;15.60;95.50;;;;;;4990172;28;20077;-79
2023/03/19 10:47:13;;;;;;;4.32;1.85;;;15.70;95.50;;;;;;4980555;28;20026;-79
2023/03/19 10:49:39;;;;;;;5.72;2.03;;;15.80;95.10;;;;;;4972471;28;20027;-80
2023/03/19 10:52:23;;;;;;;6.80;1.80;;;15.80;94.60;;;;;;4970541;28;20063;-78
2023/03/19 10:54:55;;;;;;;4.78;2.13;;;15.90;93.40;;;;;;4978154;28;20525;-78
2023/03/19 10:57:26;;;;;;;7.38;2.97;;;16.00;93.30;;;;;;4972897;28;20046;-76
2023/03/19 10:59:52;;;;;;;4.00;1.55;;;16.20;92.90;;;;;;4964980;28;20227;-83
2023/03/19 11:02:22;;;;;;;5.00;1.55;;;16.10;92.00;;;;;;4973626;28;20081;-79
2023/03/19 11:04:54;;;;;;;3.10;1.65;;;16.20;91.60;;;;;;4973258;28;20034;-80
2023/03/19 11:07:21;;;;;;;3.50;1.55;;;16.10;92.00;;;;;;4972410;28;20027;-77
2023/03/19 11:09:49;;;;;;;4.38;1.92;;;16.10;91.60;;;;;;4969344;28;20030;-78
2023/03/19 11:12:19;;;;;;;7.25;2.47;;;16.20;91.40;;;;;;4966039;28;20057;-77
2023/03/19 11:14:51;;;;;;;2.72;1.40;;;16.20;91.60;;;;;;4973313;28;20541;-77
2023/03/19 11:17:37;;;;;;;2.03;1.40;;;16.30;90.90;;;;;;4972329;28;20054;-78
2023/03/19 11:20:26;;;;;;;2.90;1.58;;;16.50;90.60;;;;;;4960794;28;20026;-77
2023/03/19 11:22:53;;;;;;;5.78;1.70;;;16.50;89.50;;;;;;4966951;28;20019;-77
2023/03/19 11:25:42;;;;;;;3.90;2.00;;;16.50;89.40;;;;;;4972745;28;20030;-77
2023/03/19 11:28:16;;;;;;;3.35;1.98;;;16.50;89.00;;;;;;4973908;28;20040;-78
2023/03/19 11:30:51;;;;;;;5.03;2.05;;;16.50;89.80;;;;;;4970350;28;20046;-77
2023/03/19 11:33:31;;;;;;;6.35;2.42;;;16.50;89.60;;;;;;4969202;28;20479;-78
2023/03/19 11:36:10;;;;;;;6.43;2.88;;;16.50;89.10;;;;;;4965094;28;20454;-76
2023/03/19 11:39:14;;;;;;;4.22;2.08;;;16.50;89.30;;;;;;4962337;28;20079;-79
2023/03/19 11:42:18;;;;;;;6.30;2.10;;;16.50;90.20;;;;;;4971045;28;20078;-77
2023/03/19 11:45:06;;;;;;;3.92;1.77;;;16.50;88.20;;;;;;4972326;28;20022;-79
2023/03/19 11:47:47;;;;;;;4.50;2.50;;;16.60;88.60;;;;;;4967522;28;20031;-80
2023/03/19 11:50:52;;;;;;;6.35;2.70;;;16.70;87.90;;;;;;4968553;28;20026;-79
2023/03/19 11:53:44;;;;;;;4.70;2.40;;;16.80;87.80;;;;;;4964641;28;20042;-80
2023/03/19 11:56:48;;;;;;;6.00;1.67;;;16.80;87.60;;;;;;4989417;28;20372;-80
2023/03/19 11:59:25;;;;;;;5.57;2.70;;;16.80;87.40;;;;;;4969398;28;20058;-81
2023/03/19 12:02:12;;;;;;;6.78;1.98;;;16.80;86.50;;;;;;4963434;28;20027;-81
2023/03/19 12:04:48;;;;;;;5.90;1.90;;;16.80;85.90;;;;;;4987397;28;20062;-80
2023/03/19 12:07:30;;;;;;;5.43;2.20;;;16.90;85.50;;;;;;4966348;28;20027;-78
2023/03/19 12:10:28;;;;;;;4.07;1.60;;;16.90;86.00;;;;;;4960091;28;20114;-80
2023/03/19 12:13:25;;;;;;;4.68;1.70;;;17.00;85.60;;;;;;4970800;28;20030;-84
2023/03/19 12:16:02;;;;;;;3.70;1.60;;;17.00;85.60;;;;;;4968719;28;20026;-76
2023/03/19 12:19:10;;;;;;;5.03;1.75;;;17.00;85.40;;;;;;4968548;28;20035;-80
2023/03/19 12:21:49;;;;;;;5.20;1.45;;;17.00;84.40;;;;;;4969365;28;20041;-79
2023/03/19 12:24:14;;;;;;;4.35;1.65;;;17.10;84.90;;;;;;4973503;28;20030;-80
2023/03/19 12:27:02;;;;;;;3.90;1.95;;;17.20;85.60;;;;;;4966600;28;20101;-80
2023/03/19 12:29:59;;;;;;;3.70;1.98;;;17.20;84.80;;;;;;4962830;28;20380;-79
2023/03/19 12:32:40;;;;;;;8.15;1.90;;;17.30;84.50;;;;;;4965507;28;20065;-78
2023/03/19 12:35:13;;;;;;;4.45;1.70;;;17.40;83.50;;;;;;4974617;28;20065;-81
2023/03/19 12:38:01;;;;;;;6.43;2.10;;;17.40;83.00;;;;;;4968416;28;20022;-77
2023/03/19 12:40:38;;;;;;;3.00;1.50;;;17.40;85.20;;;;;;4969659;28;20097;-77
2023/03/19 12:43:15;;;;;;;5.30;2.10;;;17.40;84.60;;;;;;4965739;28;20118;-79
2023/03/19 12:45:45;;;;;;;3.78;1.80;;;17.40;85.60;;;;;;4983343;28;20098;-75
2023/03/19 12:48:22;;;;;;;3.65;1.48;;;17.40;83.60;;;;;;4966828;28;20023;-76
2023/03/19 12:50:53;;;;;;;3.47;1.60;;;17.40;84.40;;;;;;4964517;28;20085;-77
2023/03/19 12:53:27;;;;;;;2.83;1.30;;;17.30;83.60;;;;;;4968140;28;20085;-79
2023/03/19 12:56:00;;;;;;;2.25;1.25;;;17.40;83.40;;;;;;4966390;28;20118;-77
2023/03/19 12:59:00;;;;;;;2.35;1.60;;;17.30;82.20;;;;;;4957302;28;20164;-79